Time;durP1;ratioP1;P1;durP2;ratioP2;P2;SDS_P1;SDS_P2;PMS_P1;PMS_P2;Temp;Humidity;BMP_temperature;BMP_pressure;BME280_temperature;BME280_humidity;BME280_pressure;Samples;Min_cycle;Max_cycle;Signal;HPM_P1;HPM_P2
2024/01/13 00:01:29;;;;;;;;;;;2.80;99.90;;;;;;5083020;27;19971;-65
2024/01/13 00:03:54;;;;;;;;;;;2.80;99.90;;;;;;5057121;27;19924;-66
2024/01/13 00:06:20;;;;;;;;;;;2.80;99.90;;;;;;5089415;27;19927;-66
2024/01/13 00:08:46;;;;;;;;;;;2.70;99.90;;;;;;5083192;27;20589;-66
2024/01/13 00:11:11;;;;;;;;;;;2.80;99.90;;;;;;5091387;27;19978;-64
2024/01/13 00:13:37;;;;;;;;;;;2.70;99.90;;;;;;5089804;27;20297;-66
2024/01/13 00:16:02;;;;;;;;;;;2.70;99.90;;;;;;5085337;27;19924;-66
2024/01/13 00:18:28;;;;;;;;;;;2.70;99.90;;;;;;5088243;27;19988;-66
2024/01/13 00:20:54;;;;;;;;;;;2.70;99.90;;;;;;5088213;27;19927;-64
2024/01/13 00:23:19;;;;;;;;;;;2.70;99.90;;;;;;5076526;27;20931;-66
2024/01/13 00:25:46;;;;;;;;;;;2.80;99.90;;;;;;5113285;27;19923;-65
2024/01/13 00:28:12;;;;;;;;;;;2.70;99.90;;;;;;5078051;27;19989;-65
2024/01/13 00:30:37;;;;;;;;;;;2.70;99.90;;;;;;5085969;27;19923;-65
2024/01/13 00:33:03;;;;;;;;;;;2.70;99.90;;;;;;5087745;27;19928;-65
2024/01/13 00:35:28;;;;;;;;;;;2.70;99.90;;;;;;5085541;27;19923;-65
2024/01/13 00:37:54;;;;;;;;;;;2.70;99.90;;;;;;5086628;27;20234;-65
2024/01/13 00:40:19;;;;;;;;;;;2.80;99.90;;;;;;5088361;27;19923;-64
2024/01/13 00:42:45;;;;;;;;;;;2.80;99.90;;;;;;5080143;27;19931;-65
2024/01/13 00:45:12;;;;;;;;;;;2.80;99.90;;;;;;5070082;27;19923;-65
2024/01/13 00:47:37;;;;;;;;;;;2.80;99.90;;;;;;5090520;27;19932;-65
2024/01/13 00:50:06;;;;;;;;;;;2.80;99.90;;;;;;5083999;27;19983;-65
2024/01/13 00:52:31;;;;;;;;;;;2.80;99.90;;;;;;5081516;27;19986;-65
2024/01/13 00:54:57;;;;;;;;;;;2.80;99.90;;;;;;5068362;27;20805;-65
2024/01/13 00:57:22;;;;;;;;;;;2.80;99.90;;;;;;5079043;27;19931;-65
2024/01/13 00:59:48;;;;;;;;;;;2.80;99.90;;;;;;5066774;27;19923;-64
2024/01/13 01:02:13;;;;;;;;;;;2.80;99.90;;;;;;5073786;27;19934;-66
2024/01/13 01:04:39;;;;;;;;;;;2.80;99.90;;;;;;5068130;27;20339;-65
2024/01/13 01:07:04;;;;;;;;;;;2.80;99.90;;;;;;5089878;27;20044;-66
2024/01/13 01:09:30;;;;;;;;;;;2.80;99.90;;;;;;5081676;27;19919;-65
2024/01/13 01:11:56;;;;;;;;;;;2.70;99.90;;;;;;5062571;27;20252;-65
2024/01/13 01:14:21;;;;;;;;;;;2.70;99.90;;;;;;5082623;27;19973;-66
2024/01/13 01:16:47;;;;;;;;;;;2.70;99.90;;;;;;5080333;27;20405;-66
2024/01/13 01:19:13;;;;;;;;;;;2.70;99.90;;;;;;5074132;27;19981;-65
2024/01/13 01:21:38;;;;;;;;;;;2.70;99.90;;;;;;5064123;27;19927;-65
2024/01/13 01:24:04;;;;;;;;;;;2.70;99.90;;;;;;5068524;27;20757;-65
2024/01/13 01:26:29;;;;;;;;;;;2.70;99.90;;;;;;5080587;27;19935;-65
2024/01/13 01:28:55;;;;;;;;;;;2.70;99.90;;;;;;5065302;27;20553;-65
2024/01/13 01:31:21;;;;;;;;;;;2.70;99.90;;;;;;5080876;27;19928;-65
2024/01/13 01:33:46;;;;;;;;;;;2.70;99.90;;;;;;5067444;27;19934;-65
2024/01/13 01:36:12;;;;;;;;;;;2.70;99.90;;;;;;5080664;27;19927;-66
2024/01/13 01:38:38;;;;;;;;;;;2.70;99.90;;;;;;5067960;27;19923;-65
2024/01/13 01:41:03;;;;;;;;;;;2.70;99.90;;;;;;5045426;27;20382;-66
2024/01/13 01:43:29;;;;;;;;;;;2.70;99.90;;;;;;5110936;27;19972;-65
2024/01/13 01:45:55;;;;;;;;;;;2.60;99.90;;;;;;5080307;27;19927;-66
2024/01/13 01:48:26;;;;;;;;;;;2.70;99.90;;;;;;5080077;27;19970;-66
2024/01/13 01:50:52;;;;;;;;;;;2.70;99.90;;;;;;5081616;27;20054;-65
2024/01/13 01:53:17;;;;;;;;;;;2.60;99.90;;;;;;5062288;27;19924;-65
2024/01/13 01:55:43;;;;;;;;;;;2.60;99.90;;;;;;5077754;27;19982;-65
2024/01/13 01:58:08;;;;;;;;;;;2.70;99.90;;;;;;5083184;27;19947;-66
2024/01/13 02:00:34;;;;;;;;;;;2.70;99.90;;;;;;5077453;27;19923;-65
2024/01/13 02:03:00;;;;;;;;;;;2.70;99.90;;;;;;5057839;27;19924;-64
2024/01/13 02:05:25;;;;;;;;;;;2.70;99.90;;;;;;5067671;27;19924;-65
2024/01/13 02:07:52;;;;;;;;;;;2.70;99.90;;;;;;5063699;27;20045;-66
2024/01/13 02:10:17;;;;;;;;;;;2.70;99.90;;;;;;5070389;27;19963;-64
2024/01/13 02:12:43;;;;;;;;;;;2.70;99.90;;;;;;5083459;27;20585;-66
2024/01/13 02:15:09;;;;;;;;;;;2.80;99.90;;;;;;5080476;27;20006;-65
2024/01/13 02:17:35;;;;;;;;;;;2.80;99.90;;;;;;5073739;27;19928;-65
2024/01/13 02:20:02;;;;;;;;;;;2.80;99.90;;;;;;5069064;27;20349;-65
2024/01/13 02:22:27;;;;;;;;;;;2.70;99.90;;;;;;5088172;27;19974;-66
2024/01/13 02:24:53;;;;;;;;;;;2.80;99.90;;;;;;5053767;27;20018;-64
2024/01/13 02:27:18;;;;;;;;;;;2.70;99.90;;;;;;5084701;27;20030;-66
2024/01/13 02:29:44;;;;;;;;;;;2.70;99.90;;;;;;5083795;27;19954;-65
2024/01/13 02:32:10;;;;;;;;;;;2.80;99.90;;;;;;5079379;27;20476;-65
2024/01/13 02:34:35;;;;;;;;;;;2.70;99.90;;;;;;5072923;27;20271;-64
2024/01/13 02:37:01;;;;;;;;;;;2.70;99.90;;;;;;5080591;27;19930;-65
2024/01/13 02:39:26;;;;;;;;;;;2.70;99.90;;;;;;5065077;28;19928;-65
2024/01/13 02:41:52;;;;;;;;;;;2.70;99.90;;;;;;5062502;28;20701;-66
2024/01/13 02:44:17;;;;;;;;;;;2.70;99.90;;;;;;5080439;28;20655;-66
2024/01/13 02:46:43;;;;;;;;;;;2.80;99.90;;;;;;5080554;28;19919;-65
2024/01/13 02:49:09;;;;;;;;;;;2.80;99.90;;;;;;5080357;28;19932;-65
2024/01/13 02:51:34;;;;;;;;;;;2.70;99.90;;;;;;5063328;28;20398;-66
2024/01/13 02:54:00;;;;;;;;;;;2.80;99.90;;;;;;5083515;27;20306;-66
2024/01/13 02:56:26;;;;;;;;;;;2.80;99.90;;;;;;5084995;27;19923;-64
2024/01/13 02:58:51;;;;;;;;;;;2.70;99.90;;;;;;5087126;27;19938;-66
2024/01/13 03:01:17;;;;;;;;;;;2.80;99.90;;;;;;5071700;27;19923;-64
2024/01/13 03:03:42;;;;;;;;;;;2.80;99.90;;;;;;5074524;27;19945;-65
2024/01/13 03:06:08;;;;;;;;;;;2.80;99.90;;;;;;5079771;27;19935;-66
2024/01/13 03:08:34;;;;;;;;;;;2.80;99.90;;;;;;5079235;27;19946;-65
2024/01/13 03:11:00;;;;;;;;;;;2.80;99.90;;;;;;5058944;27;19923;-65
2024/01/13 03:13:25;;;;;;;;;;;2.80;99.90;;;;;;5082473;27;19923;-65
2024/01/13 03:15:51;;;;;;;;;;;2.80;99.90;;;;;;5083982;27;20159;-64
2024/01/13 03:18:16;;;;;;;;;;;2.90;99.90;;;;;;5106069;27;19927;-65
2024/01/13 03:20:42;;;;;;;;;;;2.80;99.90;;;;;;5076162;27;20305;-66
2024/01/13 03:23:08;;;;;;;;;;;2.80;99.90;;;;;;5086676;27;19927;-65
2024/01/13 03:25:33;;;;;;;;;;;2.80;99.90;;;;;;5087955;27;19981;-65
2024/01/13 03:27:59;;;;;;;;;;;2.80;99.90;;;;;;5088629;27;19941;-65
2024/01/13 03:30:25;;;;;;;;;;;2.80;99.90;;;;;;5069716;27;19968;-65
2024/01/13 03:32:50;;;;;;;;;;;2.80;99.90;;;;;;5083570;27;20054;-65
2024/01/13 03:35:16;;;;;;;;;;;2.80;99.90;;;;;;5071348;27;20301;-65
2024/01/13 03:37:41;;;;;;;;;;;2.80;99.90;;;;;;5058195;27;19931;-65
2024/01/13 03:40:07;;;;;;;;;;;2.80;99.90;;;;;;5087118;27;19946;-65
2024/01/13 03:42:33;;;;;;;;;;;2.80;99.90;;;;;;5081553;27;19930;-66
2024/01/13 03:44:58;;;;;;;;;;;2.80;99.90;;;;;;5086264;27;19963;-66
2024/01/13 03:47:24;;;;;;;;;;;2.80;99.90;;;;;;5070949;27;19981;-65
2024/01/13 03:49:49;;;;;;;;;;;2.80;99.90;;;;;;5095526;27;19927;-65
2024/01/13 03:52:15;;;;;;;;;;;2.80;99.90;;;;;;5068500;27;19928;-66
2024/01/13 03:54:41;;;;;;;;;;;2.80;99.90;;;;;;5068671;27;19928;-65
2024/01/13 03:57:07;;;;;;;;;;;2.80;99.90;;;;;;5073623;27;20583;-66
2024/01/13 03:59:33;;;;;;;;;;;2.80;99.90;;;;;;5071301;27;20010;-64
2024/01/13 04:01:58;;;;;;;;;;;2.80;99.90;;;;;;5069172;27;20065;-66
2024/01/13 04:04:24;;;;;;;;;;;2.80;99.90;;;;;;5082112;27;19931;-64
2024/01/13 04:06:50;;;;;;;;;;;2.80;99.90;;;;;;5062290;27;19931;-66
2024/01/13 04:09:15;;;;;;;;;;;2.80;99.90;;;;;;5076082;27;19924;-65
2024/01/13 04:11:41;;;;;;;;;;;2.80;99.90;;;;;;5076895;27;19950;-64
2024/01/13 04:14:06;;;;;;;;;;;2.80;99.90;;;;;;5086992;27;19927;-65
2024/01/13 04:16:32;;;;;;;;;;;2.80;99.90;;;;;;5081934;27;19923;-66
2024/01/13 04:18:58;;;;;;;;;;;2.80;99.90;;;;;;5080115;27;20332;-65
2024/01/13 04:21:23;;;;;;;;;;;2.80;99.90;;;;;;5068364;27;19923;-66
2024/01/13 04:23:49;;;;;;;;;;;2.80;99.90;;;;;;5051981;27;20000;-65
2024/01/13 04:26:15;;;;;;;;;;;2.80;99.90;;;;;;5091652;27;19920;-64
2024/01/13 04:28:40;;;;;;;;;;;2.80;99.90;;;;;;5107120;27;19924;-66
2024/01/13 04:31:07;;;;;;;;;;;2.70;99.90;;;;;;5065171;27;20000;-65
2024/01/13 04:33:32;;;;;;;;;;;2.70;99.90;;;;;;5069448;27;19937;-66
2024/01/13 04:35:58;;;;;;;;;;;2.80;99.90;;;;;;5085075;27;19927;-66
2024/01/13 04:38:23;;;;;;;;;;;2.70;99.90;;;;;;5079082;27;20053;-66
2024/01/13 04:40:49;;;;;;;;;;;2.80;99.90;;;;;;5077227;27;20651;-66
2024/01/13 04:43:15;;;;;;;;;;;2.80;99.90;;;;;;5093307;27;19931;-65
2024/01/13 04:45:40;;;;;;;;;;;2.80;99.90;;;;;;5067514;27;19934;-66
2024/01/13 04:48:06;;;;;;;;;;;2.80;99.90;;;;;;5083266;27;19936;-65
2024/01/13 04:50:31;;;;;;;;;;;2.80;99.90;;;;;;5069393;27;19930;-66
2024/01/13 04:52:57;;;;;;;;;;;2.80;99.90;;;;;;5086727;27;19963;-66
2024/01/13 04:55:23;;;;;;;;;;;2.80;99.90;;;;;;5090492;27;19930;-66
2024/01/13 04:57:48;;;;;;;;;;;2.80;99.90;;;;;;5086209;27;20474;-66
2024/01/13 05:00:14;;;;;;;;;;;2.80;99.90;;;;;;5085578;27;19934;-66
2024/01/13 05:02:40;;;;;;;;;;;2.80;99.90;;;;;;5081453;27;20293;-64
2024/01/13 05:05:05;;;;;;;;;;;2.80;99.90;;;;;;5084956;27;19927;-66
2024/01/13 05:07:31;;;;;;;;;;;2.80;99.90;;;;;;5083667;27;20423;-65
2024/01/13 05:09:56;;;;;;;;;;;2.80;99.90;;;;;;5080352;27;20363;-65
2024/01/13 05:12:22;;;;;;;;;;;2.80;99.90;;;;;;5083780;27;20000;-66
2024/01/13 05:14:48;;;;;;;;;;;2.90;99.90;;;;;;5067015;27;20053;-65
2024/01/13 05:17:13;;;;;;;;;;;2.90;99.90;;;;;;5082137;27;19928;-66
2024/01/13 05:19:39;;;;;;;;;;;2.90;99.90;;;;;;5102215;27;19927;-66
2024/01/13 05:22:05;;;;;;;;;;;2.90;99.90;;;;;;5078659;27;19924;-66
2024/01/13 05:24:30;;;;;;;;;;;2.90;99.90;;;;;;5088894;27;20358;-66
2024/01/13 05:26:56;;;;;;;;;;;2.80;99.90;;;;;;5057872;27;20281;-66
2024/01/13 05:29:22;;;;;;;;;;;2.90;99.90;;;;;;5089263;27;19919;-66
2024/01/13 05:31:47;;;;;;;;;;;2.90;99.90;;;;;;5077255;27;19927;-66
2024/01/13 05:34:13;;;;;;;;;;;2.90;99.90;;;;;;5080022;27;20445;-65
2024/01/13 05:36:38;;;;;;;;;;;2.80;99.90;;;;;;5077688;27;19927;-65
2024/01/13 05:39:04;;;;;;;;;;;2.90;99.90;;;;;;5071595;27;20301;-65
2024/01/13 05:41:30;;;;;;;;;;;2.80;99.90;;;;;;5071199;27;19931;-65
2024/01/13 05:43:55;;;;;;;;;;;2.90;99.90;;;;;;5084611;27;19930;-64
2024/01/13 05:46:21;;;;;;;;;;;2.80;99.90;;;;;;5069578;27;19945;-65
2024/01/13 05:48:46;;;;;;;;;;;2.80;99.90;;;;;;5075797;27;19942;-65
2024/01/13 05:51:12;;;;;;;;;;;2.80;99.90;;;;;;5062982;27;19923;-65
2024/01/13 05:53:38;;;;;;;;;;;2.80;99.90;;;;;;5078512;27;20031;-64
2024/01/13 05:56:04;;;;;;;;;;;2.80;99.90;;;;;;5105317;27;19931;-66
2024/01/13 05:58:30;;;;;;;;;;;2.80;99.90;;;;;;5074792;27;20063;-65
2024/01/13 06:00:56;;;;;;;;;;;2.80;99.90;;;;;;5043833;27;20378;-64
2024/01/13 06:03:21;;;;;;;;;;;2.80;99.90;;;;;;5084052;27;19923;-66
2024/01/13 06:05:47;;;;;;;;;;;2.80;99.90;;;;;;5062417;27;19955;-65
2024/01/13 06:08:12;;;;;;;;;;;2.80;99.90;;;;;;5072552;27;19955;-65
2024/01/13 06:10:38;;;;;;;;;;;2.80;99.90;;;;;;5079864;28;19931;-65
2024/01/13 06:13:04;;;;;;;;;;;2.80;99.90;;;;;;5069357;27;19975;-65
2024/01/13 06:15:29;;;;;;;;;;;2.80;99.90;;;;;;5077838;27;20381;-65
2024/01/13 06:17:55;;;;;;;;;;;2.80;99.90;;;;;;5070814;27;19928;-65
2024/01/13 06:20:21;;;;;;;;;;;2.80;99.90;;;;;;5072385;28;20544;-65
2024/01/13 06:22:46;;;;;;;;;;;2.80;99.90;;;;;;5074330;27;19927;-65
2024/01/13 06:25:12;;;;;;;;;;;2.80;99.90;;;;;;5063465;27;19933;-66
2024/01/13 06:27:38;;;;;;;;;;;2.90;99.90;;;;;;5077663;27;20394;-66
2024/01/13 06:30:04;;;;;;;;;;;2.90;99.90;;;;;;5064492;27;19930;-65
2024/01/13 06:32:30;;;;;;;;;;;2.90;99.90;;;;;;5083565;27;20027;-64
2024/01/13 06:34:55;;;;;;;;;;;2.90;99.90;;;;;;5079598;27;20398;-65
2024/01/13 06:37:21;;;;;;;;;;;2.90;99.90;;;;;;5083030;27;20630;-66
2024/01/13 06:39:46;;;;;;;;;;;2.90;99.90;;;;;;5066508;27;19927;-65
2024/01/13 06:42:12;;;;;;;;;;;2.90;99.90;;;;;;5066324;28;19932;-66
2024/01/13 06:44:38;;;;;;;;;;;2.90;99.90;;;;;;5068499;28;19966;-64
2024/01/13 06:47:03;;;;;;;;;;;2.90;99.90;;;;;;5085751;28;19934;-65
2024/01/13 06:49:29;;;;;;;;;;;2.90;99.90;;;;;;5061196;28;19932;-65
2024/01/13 06:51:54;;;;;;;;;;;2.90;99.90;;;;;;5066409;28;19927;-66
2024/01/13 06:54:20;;;;;;;;;;;2.90;99.90;;;;;;5067865;28;20636;-65
2024/01/13 06:56:46;;;;;;;;;;;2.90;99.90;;;;;;5073503;27;19985;-65
2024/01/13 06:59:11;;;;;;;;;;;2.90;99.90;;;;;;5083261;28;20383;-66
2024/01/13 07:01:37;;;;;;;;;;;2.90;99.90;;;;;;5072534;28;19927;-66
2024/01/13 07:04:02;;;;;;;;;;;2.90;99.90;;;;;;5077864;28;19963;-65
2024/01/13 07:06:28;;;;;;;;;;;2.90;99.90;;;;;;5071489;28;21759;-66
2024/01/13 07:08:55;;;;;;;;;;;2.90;99.90;;;;;;5064556;27;19928;-64
2024/01/13 07:11:21;;;;;;;;;;;2.90;99.90;;;;;;5068812;28;19935;-65
2024/01/13 07:13:46;;;;;;;;;;;2.90;99.90;;;;;;5077838;28;19935;-65
2024/01/13 07:16:12;;;;;;;;;;;2.90;99.90;;;;;;5082250;28;19951;-65
2024/01/13 07:18:37;;;;;;;;;;;3.00;99.90;;;;;;5088855;28;19976;-65
2024/01/13 07:21:07;;;;;;;;;;;2.90;99.90;;;;;;5086777;28;19928;-66
2024/01/13 07:23:32;;;;;;;;;;;2.90;99.90;;;;;;5075132;27;19978;-64
2024/01/13 07:25:59;;;;;;;;;;;3.00;99.90;;;;;;5070776;28;20034;-65
2024/01/13 07:28:24;;;;;;;;;;;3.00;99.90;;;;;;5105147;27;19931;-65
2024/01/13 07:30:50;;;;;;;;;;;3.00;99.90;;;;;;5075208;28;19932;-66
2024/01/13 07:33:15;;;;;;;;;;;3.00;99.90;;;;;;5085397;28;19935;-65
2024/01/13 07:35:41;;;;;;;;;;;3.00;99.90;;;;;;5079087;28;19924;-65
2024/01/13 07:38:07;;;;;;;;;;;3.00;99.90;;;;;;5081836;28;19928;-66
2024/01/13 07:40:32;;;;;;;;;;;3.00;99.90;;;;;;5069725;27;19924;-65
2024/01/13 07:42:58;;;;;;;;;;;3.00;99.90;;;;;;5067904;27;19931;-66
2024/01/13 07:45:24;;;;;;;;;;;3.00;99.90;;;;;;5065754;27;20365;-65
2024/01/13 07:47:49;;;;;;;;;;;3.10;99.90;;;;;;5086534;27;19939;-64
2024/01/13 07:50:16;;;;;;;;;;;3.00;99.90;;;;;;5081767;27;20071;-66
2024/01/13 07:52:41;;;;;;;;;;;3.00;99.90;;;;;;5092234;27;20660;-65
2024/01/13 07:55:07;;;;;;;;;;;3.00;99.90;;;;;;5085567;27;19928;-65
2024/01/13 07:57:32;;;;;;;;;;;3.00;99.90;;;;;;5050567;27;19992;-65
2024/01/13 07:59:58;;;;;;;;;;;3.10;99.90;;;;;;5085822;27;21662;-65
2024/01/13 08:02:24;;;;;;;;;;;3.10;99.90;;;;;;5065641;27;19927;-66
2024/01/13 08:04:49;;;;;;;;;;;3.10;99.90;;;;;;5084203;27;19923;-65
2024/01/13 08:07:15;;;;;;;;;;;3.10;99.90;;;;;;5084287;27;19997;-65
2024/01/13 08:09:40;;;;;;;;;;;3.20;99.90;;;;;;5089905;27;19927;-65
2024/01/13 08:12:07;;;;;;;;;;;3.10;99.90;;;;;;5050442;27;20338;-64
2024/01/13 08:14:33;;;;;;;;;;;3.10;99.90;;;;;;5068615;27;19928;-65
2024/01/13 08:16:59;;;;;;;;;;;3.10;99.90;;;;;;5079805;27;20255;-65
2024/01/13 08:19:24;;;;;;;;;;;3.20;99.90;;;;;;5061721;27;19938;-65
2024/01/13 08:21:50;;;;;;;;;;;3.10;99.90;;;;;;5080369;27;19919;-65
2024/01/13 08:24:16;;;;;;;;;;;3.10;99.90;;;;;;5077450;27;20214;-65
2024/01/13 08:26:42;;;;;;;;;;;3.10;99.90;;;;;;5088697;27;19934;-65
2024/01/13 08:29:08;;;;;;;;;;;3.10;99.90;;;;;;5082662;27;21046;-65
2024/01/13 08:31:33;;;;;;;;;;;3.10;99.90;;;;;;5086270;27;19980;-65
2024/01/13 08:33:59;;;;;;;;;;;3.10;99.90;;;;;;5062882;27;20622;-64
2024/01/13 08:36:25;;;;;;;;;;;3.10;99.90;;;;;;5081410;27;19931;-65
2024/01/13 08:38:50;;;;;;;;;;;3.10;99.90;;;;;;5081716;27;19976;-65
2024/01/13 08:41:16;;;;;;;;;;;3.10;99.90;;;;;;5079490;27;19928;-65
2024/01/13 08:43:41;;;;;;;;;;;3.10;99.90;;;;;;5062278;27;19926;-65
2024/01/13 08:46:09;;;;;;;;;;;3.10;99.90;;;;;;5069968;27;19930;-65
2024/01/13 08:48:35;;;;;;;;;;;3.10;99.90;;;;;;5060578;27;19927;-65
2024/01/13 08:51:00;;;;;;;;;;;3.10;99.90;;;;;;5056571;27;19931;-64
2024/01/13 08:53:27;;;;;;;;;;;3.10;99.90;;;;;;5089420;27;19938;-65
2024/01/13 08:55:53;;;;;;;;;;;3.20;99.90;;;;;;5080832;27;19928;-65
2024/01/13 08:58:18;;;;;;;;;;;3.20;99.90;;;;;;5072466;27;20409;-65
2024/01/13 09:00:44;;;;;;;;;;;3.20;99.90;;;;;;5078019;27;19988;-66
2024/01/13 09:03:10;;;;;;;;;;;3.20;99.90;;;;;;5070851;27;19924;-65
2024/01/13 09:05:36;;;;;;;;;;;3.20;99.90;;;;;;5062797;27;19974;-66
2024/01/13 09:08:02;;;;;;;;;;;3.30;99.90;;;;;;5069587;27;20346;-65
2024/01/13 09:10:27;;;;;;;;;;;3.30;99.90;;;;;;5073823;27;19924;-64
2024/01/13 09:12:53;;;;;;;;;;;3.30;99.90;;;;;;5079499;27;19962;-65
2024/01/13 09:15:18;;;;;;;;;;;3.20;99.90;;;;;;5062301;27;20294;-64
2024/01/13 09:17:44;;;;;;;;;;;3.20;99.90;;;;;;5064239;27;19931;-65
2024/01/13 09:20:10;;;;;;;;;;;3.30;99.90;;;;;;5076480;27;20297;-65
2024/01/13 09:22:36;;;;;;;;;;;3.20;99.90;;;;;;5073121;27;19923;-65
2024/01/13 09:25:02;;;;;;;;;;;3.20;99.90;;;;;;5092727;27;19934;-65
2024/01/13 09:27:28;;;;;;;;;;;3.20;99.90;;;;;;5075700;27;19970;-64
2024/01/13 09:29:53;;;;;;;;;;;3.20;99.90;;;;;;5060493;27;19930;-64
2024/01/13 09:32:19;;;;;;;;;;;3.20;99.90;;;;;;5075829;27;20010;-65
2024/01/13 09:34:44;;;;;;;;;;;3.20;99.90;;;;;;5079632;27;19928;-65
2024/01/13 09:37:10;;;;;;;;;;;3.20;99.90;;;;;;5073625;27;19969;-66
2024/01/13 09:39:36;;;;;;;;;;;3.20;99.90;;;;;;5080668;27;20215;-65
2024/01/13 09:42:02;;;;;;;;;;;3.30;99.90;;;;;;5072365;27;19928;-65
2024/01/13 09:44:30;;;;;;;;;;;3.30;99.90;;;;;;5076994;27;20219;-65
2024/01/13 09:46:56;;;;;;;;;;;3.30;99.90;;;;;;5068822;27;19927;-65
2024/01/13 09:49:23;;;;;;;;;;;3.30;99.90;;;;;;5091924;27;19928;-65
2024/01/13 09:51:49;;;;;;;;;;;3.30;99.90;;;;;;5073871;27;19931;-65
2024/01/13 09:54:19;;;;;;;;;;;3.30;99.90;;;;;;5077696;27;19993;-64
2024/01/13 09:56:46;;;;;;;;;;;3.30;99.90;;;;;;5078135;27;20026;-65
2024/01/13 09:59:12;;;;;;;;;;;3.30;99.90;;;;;;5077906;27;20224;-65
2024/01/13 10:01:38;;;;;;;;;;;3.40;99.90;;;;;;5074485;28;19930;-66
2024/01/13 10:04:04;;;;;;;;;;;3.30;99.90;;;;;;5074611;27;19967;-65
2024/01/13 10:06:31;;;;;;;;;;;3.30;99.90;;;;;;5079076;28;20364;-65
2024/01/13 10:08:57;;;;;;;;;;;3.30;99.90;;;;;;5069407;27;19935;-66
2024/01/13 10:11:22;;;;;;;;;;;3.40;99.90;;;;;;5074895;27;20386;-66
2024/01/13 10:13:58;;;;;;;;;;;3.40;99.90;;;;;;5075458;27;19927;-65
2024/01/13 10:16:25;;;;;;;;;;;3.40;99.90;;;;;;5070237;27;20462;-65
2024/01/13 10:18:52;;;;;;;;;;;3.40;99.90;;;;;;5076352;27;19930;-65
2024/01/13 10:21:17;;;;;;;;;;;3.40;99.90;;;;;;5093521;27;20018;-65
2024/01/13 10:23:43;;;;;;;;;;;3.60;99.90;;;;;;5083493;27;19934;-65
2024/01/13 10:26:09;;;;;;;;;;;3.50;99.90;;;;;;5084474;27;23126;-65
2024/01/13 10:28:35;;;;;;;;;;;3.60;99.90;;;;;;5074843;27;19919;-65
2024/01/13 10:31:01;;;;;;;;;;;3.60;99.90;;;;;;5067871;27;19937;-65
2024/01/13 10:33:29;;;;;;;;;;;3.60;99.90;;;;;;5073976;27;19927;-65
2024/01/13 10:35:54;;;;;;;;;;;3.60;99.90;;;;;;5068778;27;19935;-64
2024/01/13 10:38:20;;;;;;;;;;;3.70;99.90;;;;;;5064217;28;20370;-65
2024/01/13 10:40:46;;;;;;;;;;;3.70;99.90;;;;;;5058420;27;19927;-64
2024/01/13 10:43:13;;;;;;;;;;;3.70;99.90;;;;;;5071227;27;20608;-64
2024/01/13 10:45:41;;;;;;;;;;;3.70;99.90;;;;;;5096447;27;19971;-65
2024/01/13 10:48:12;;;;;;;;;;;3.70;99.90;;;;;;5061263;28;19958;-64
2024/01/13 10:50:39;;;;;;;;;;;3.70;99.90;;;;;;5085608;27;20491;-65
2024/01/13 10:53:16;;;;;;;;;;;3.70;99.90;;;;;;5079650;27;19971;-64
2024/01/13 10:55:42;;;;;;;;;;;3.70;99.90;;;;;;5079265;28;19966;-65
2024/01/13 10:58:09;;;;;;;;;;;3.70;99.90;;;;;;5078867;28;20792;-65
2024/01/13 11:00:34;;;;;;;;;;;3.70;99.90;;;;;;5075410;28;19933;-64
2024/01/13 11:03:01;;;;;;;;;;;3.70;99.90;;;;;;5098342;28;19923;-65
2024/01/13 11:05:27;;;;;;;;;;;3.80;99.90;;;;;;5083187;27;20008;-64
2024/01/13 11:07:52;;;;;;;;;;;3.70;99.90;;;;;;5066724;27;19928;-64
2024/01/13 11:10:22;;;;;;;;;;;3.80;99.90;;;;;;5067717;28;20522;-65
2024/01/13 11:13:07;;;;;;;;;;;3.80;99.90;;;;;;5064285;27;20389;-65
2024/01/13 11:15:38;;;;;;;;;;;3.80;99.90;;;;;;5079960;27;19927;-64
2024/01/13 11:18:04;;;;;;;;;;;3.80;99.90;;;;;;5087848;27;19936;-64
2024/01/13 11:20:50;;;;;;;;;;;3.90;99.90;;;;;;5079170;27;19932;-64
2024/01/13 11:23:15;;;;;;;;;;;3.90;99.90;;;;;;5084207;27;20016;-65
2024/01/13 11:25:41;;;;;;;;;;;3.90;99.90;;;;;;5100372;27;20042;-64
2024/01/13 11:28:12;;;;;;;;;;;3.90;99.90;;;;;;5064107;27;20378;-65
2024/01/13 11:30:38;;;;;;;;;;;4.00;99.90;;;;;;5079190;27;19928;-64
2024/01/13 11:33:11;;;;;;;;;;;4.00;99.90;;;;;;5082079;27;19966;-65
2024/01/13 11:35:40;;;;;;;;;;;4.00;99.90;;;;;;5085357;27;19963;-65
2024/01/13 11:38:06;;;;;;;;;;;4.00;99.90;;;;;;5089301;27;19931;-64
2024/01/13 11:40:32;;;;;;;;;;;4.00;99.90;;;;;;5082725;27;19987;-64
2024/01/13 11:43:02;;;;;;;;;;;4.00;99.90;;;;;;5082692;27;19974;-64
2024/01/13 11:45:35;;;;;;;;;;;4.10;99.90;;;;;;5093076;27;19931;-64
2024/01/13 11:48:19;;;;;;;;;;;4.10;99.90;;;;;;5079235;27;19988;-64
2024/01/13 11:50:50;;;;;;;;;;;4.20;99.90;;;;;;5078020;27;20045;-64
2024/01/13 11:53:31;;;;;;;;;;;4.20;99.90;;;;;;5057389;27;20310;-65
2024/01/13 11:55:57;;;;;;;;;;;4.20;99.90;;;;;;5077022;27;19923;-65
2024/01/13 11:58:22;;;;;;;;;;;4.30;99.90;;;;;;5078982;27;19997;-64
2024/01/13 12:00:48;;;;;;;;;;;4.30;99.90;;;;;;5063021;27;19963;-65
2024/01/13 12:03:15;;;;;;;;;;;4.30;99.90;;;;;;5063406;27;19946;-64
2024/01/13 12:05:40;;;;;;;;;;;4.30;99.90;;;;;;5081416;27;19947;-64
2024/01/13 12:08:06;;;;;;;;;;;4.30;99.90;;;;;;5077360;27;20387;-65
2024/01/13 12:10:40;;;;;;;;;;;4.30;99.90;;;;;;5078941;27;19927;-64
2024/01/13 12:13:13;;;;;;;;;;;4.30;99.90;;;;;;5075079;27;20309;-65
2024/01/13 12:15:42;;;;;;;;;;;4.40;99.90;;;;;;5079683;27;19927;-65
2024/01/13 12:18:08;;;;;;;;;;;4.40;99.90;;;;;;5092402;27;20014;-64
2024/01/13 12:20:33;;;;;;;;;;;4.40;99.90;;;;;;5075002;27;19988;-65
2024/01/13 12:22:59;;;;;;;;;;;4.50;99.90;;;;;;5076685;27;20419;-65
2024/01/13 12:25:25;;;;;;;;;;;4.50;99.90;;;;;;5077572;27;19923;-65
2024/01/13 12:27:50;;;;;;;;;;;4.50;99.90;;;;;;5081041;27;20491;-65
2024/01/13 12:30:19;;;;;;;;;;;4.50;99.90;;;;;;5090082;27;19927;-64
2024/01/13 12:32:45;;;;;;;;;;;4.50;99.90;;;;;;5091217;27;20044;-65
2024/01/13 12:35:12;;;;;;;;;;;4.50;99.90;;;;;;5067639;27;19938;-64
2024/01/13 12:37:37;;;;;;;;;;;4.50;99.90;;;;;;5083422;27;20273;-65
2024/01/13 12:40:05;;;;;;;;;;;4.60;99.90;;;;;;5077732;27;19983;-65
2024/01/13 12:42:30;;;;;;;;;;;4.50;99.90;;;;;;5062070;27;19981;-65
2024/01/13 12:44:57;;;;;;;;;;;4.60;99.90;;;;;;5074947;27;19935;-65
2024/01/13 12:47:24;;;;;;;;;;;4.60;99.90;;;;;;5030695;27;19934;-65
2024/01/13 12:49:49;;;;;;;;;;;4.70;99.90;;;;;;5054693;27;19931;-65
2024/01/13 12:52:15;;;;;;;;;;;4.70;99.90;;;;;;5051091;27;20419;-65
2024/01/13 12:54:40;;;;;;;;;;;4.70;99.90;;;;;;5070929;27;19927;-64
2024/01/13 12:57:06;;;;;;;;;;;4.80;99.90;;;;;;5070074;27;19934;-65
2024/01/13 12:59:32;;;;;;;;;;;4.80;99.90;;;;;;5069105;27;19967;-64
2024/01/13 13:01:57;;;;;;;;;;;4.80;99.90;;;;;;5054810;27;19935;-65
2024/01/13 13:04:24;;;;;;;;;;;4.90;99.90;;;;;;5073841;27;19958;-65
2024/01/13 13:06:50;;;;;;;;;;;4.90;99.90;;;;;;5073337;27;19931;-66
2024/01/13 13:09:15;;;;;;;;;;;4.90;99.90;;;;;;5073847;27;20102;-65
2024/01/13 13:11:41;;;;;;;;;;;5.00;99.90;;;;;;5064664;27;20116;-64
2024/01/13 13:14:06;;;;;;;;;;;5.10;99.90;;;;;;5053594;27;19928;-66
2024/01/13 13:16:32;;;;;;;;;;;5.20;99.90;;;;;;5068370;27;20041;-65
2024/01/13 13:18:58;;;;;;;;;;;5.30;99.90;;;;;;5088070;27;20478;-65
2024/01/13 13:21:23;;;;;;;;;;;5.30;99.90;;;;;;5084488;27;19924;-65
2024/01/13 13:23:49;;;;;;;;;;;5.40;99.90;;;;;;5059941;27;20562;-65
2024/01/13 13:26:15;;;;;;;;;;;5.50;99.90;;;;;;5068626;27;19934;-65
2024/01/13 13:28:41;;;;;;;;;;;5.60;99.90;;;;;;5066318;27;20006;-65
2024/01/13 13:31:07;;;;;;;;;;;5.80;99.90;;;;;;5085200;27;20014;-65
2024/01/13 13:33:33;;;;;;;;;;;5.80;99.90;;;;;;5083008;27;20409;-65
2024/01/13 13:35:59;;;;;;;;;;;5.90;99.90;;;;;;5067690;27;19935;-64
2024/01/13 13:38:25;;;;;;;;;;;6.00;99.90;;;;;;5065280;27;20018;-64
2024/01/13 13:40:51;;;;;;;;;;;6.00;99.90;;;;;;5075244;27;19930;-64
2024/01/13 13:43:16;;;;;;;;;;;6.10;99.90;;;;;;5057782;27;19927;-62
2024/01/13 13:45:42;;;;;;;;;;;6.10;99.90;;;;;;5096114;27;19923;-62
2024/01/13 13:48:08;;;;;;;;;;;6.20;99.90;;;;;;5070597;27;20380;-63
2024/01/13 13:50:35;;;;;;;;;;;6.20;99.90;;;;;;5074426;27;19936;-63
2024/01/13 13:53:03;;;;;;;;;;;6.20;99.90;;;;;;5091972;27;20591;-62
2024/01/13 13:55:28;;;;;;;;;;;6.30;99.90;;;;;;5057822;27;20658;-62
2024/01/13 13:57:54;;;;;;;;;;;6.20;99.90;;;;;;5075419;27;19931;-62
2024/01/13 14:00:20;;;;;;;;;;;6.20;99.90;;;;;;5078958;27;19988;-62
2024/01/13 14:02:45;;;;;;;;;;;6.20;99.90;;;;;;5070949;27;20455;-62
2024/01/13 14:05:11;;;;;;;;;;;6.10;99.90;;;;;;5092237;27;19920;-62
2024/01/13 14:07:37;;;;;;;;;;;6.10;99.90;;;;;;5065963;27;19931;-63
2024/01/13 14:10:03;;;;;;;;;;;6.00;99.90;;;;;;5060899;27;19928;-63
2024/01/13 14:12:28;;;;;;;;;;;6.00;99.90;;;;;;5072250;27;19935;-63
2024/01/13 14:14:54;;;;;;;;;;;5.90;99.90;;;;;;5079526;27;19929;-62
2024/01/13 14:17:19;;;;;;;;;;;5.80;99.90;;;;;;5100933;27;19924;-62
2024/01/13 14:19:45;;;;;;;;;;;5.90;99.90;;;;;;5083760;27;19919;-63
2024/01/13 14:22:11;;;;;;;;;;;5.80;99.90;;;;;;5082322;27;19927;-62
2024/01/13 14:24:36;;;;;;;;;;;5.80;99.90;;;;;;5097808;27;19949;-62